Leander — DEDP — position and weather

sailwx.info

Track history (hours):
 
Tides and Currents Weather Stations Pressure Air Temp Water Temp Dewpoint Dewpoint Depression Visibility Wind Speed Wind Dir Waves Ship Positions

Leander

Last reported at 2017-Nov-18 21:19 UTC. Time now 2017-Nov-22 11:19 UTC.
Position N 56°27' E 007°12'.

Length 144 m; draft 7.7 m.

Type: Ship. MMSI: 218731000.

Date/timePositionNaut miles runAvg speedWind from/ knotsBaromVisibWave heightAir tempDewpointWater temp
2017-Nov-18 21:19N 56°27' E 007°12'3 8.8
2017-Nov-18 21:00N 56°29' E 007°15'4 8.6
2017-Nov-18 20:29N 56°33' E 007°19'4 8.8
2017-Nov-18 19:59N 56°36' E 007°24'4 8.8
2017-Nov-18 19:30N 56°40' E 007°28'5 9.2
2017-Nov-18 18:57N 56°44' E 007°32'112 8.8
2017-Nov-18 06:11N 57°48' E 010°23'2 8.9
2017-Nov-18 06:00N 57°48' E 010°26'4 8.8
2017-Nov-18 05:30N 57°49' E 010°34'4 8.5
2017-Nov-18 05:00N 57°48' E 010°42'7 9.4
2017-Nov-18 04:16N 57°44' E 010°52'311.2
2017-Nov-18 04:00N 57°42' E 010°56'611.3
2017-Nov-18 03:29N 57°39' E 011°05'611.9
2017-Nov-18 03:00N 57°35' E 011°13'612.0
2017-Nov-18 02:29N 57°31' E 011°22'511.4
2017-Nov-18 02:00N 57°26' E 011°27'611.9
2017-Nov-18 01:30N 57°20' E 011°31'612.0
2017-Nov-18 01:00N 57°15' E 011°35'612.0
2017-Nov-18 00:30N 57°09' E 011°38'6011.9
2017-Nov-17 19:27N 56°13' E 012°18'511.6
2017-Nov-17 19:00N 56°10' E 012°25'611.9
2017-Nov-17 18:30N 56°06' E 012°34'5 9.3
2017-Nov-17 18:00N 56°03' E 012°39'611.2
2017-Nov-17 17:31N 55°58' E 012°41'612.7
2017-Nov-17 17:00N 55°51' E 012°41'612.8
2017-Nov-17 16:30N 55°45' E 012°42'4 9.0
2017-Nov-17 16:00N 55°41' E 012°39'1 0.0
2017-Nov-16 11:43N 55°41' E 012°38'0 0.0
2017-Nov-16 11:25N 55°41' E 012°38'0 0.0
2017-Nov-16 10:58N 55°41' E 012°38'0 0.0
2017-Nov-16 10:28N 55°41' E 012°38'0 0.0
2017-Nov-16 09:58N 55°41' E 012°38'0 0.0
2017-Nov-16 09:28N 55°41' E 012°38'0 0.0
2017-Nov-16 08:58N 55°41' E 012°38'0 0.0
2017-Nov-16 08:28N 55°41' E 012°38'0 0.0
2017-Nov-16 08:00N 55°41' E 012°38'1 1.6
2017-Nov-16 07:30N 55°42' E 012°38'4 7.2
2017-Nov-16 07:00N 55°45' E 012°41'4 8.0
2017-Nov-16 06:30N 55°49' E 012°42'611.3
2017-Nov-16 06:00N 55°54' E 012°39'611.3
2017-Nov-16 05:30N 55°60' E 012°38'5 9.4
2017-Nov-16 05:00N 56°04' E 012°36'5 9.3
2017-Nov-16 04:31N 56°07' E 012°29'5 9.6
2017-Nov-16 04:01N 56°10' E 012°22'5 9.4
2017-Nov-16 03:30N 56°13' E 012°15'4410.9
2017-Nov-15 23:28N 56°54' E 011°46'611.9
2017-Nov-15 22:58N 56°59' E 011°43'611.7
2017-Nov-15 22:29N 57°05' E 011°39'611.6
2017-Nov-15 22:00N 57°10' E 011°36'611.5
2017-Nov-15 21:30N 57°15' E 011°32'611.5
2017-Nov-15 21:00N 57°21' E 011°29'511.0
2017-Nov-15 20:30N 57°26' E 011°26'611.0
2017-Nov-15 19:59N 57°30' E 011°19'611.5
2017-Nov-15 19:30N 57°34' E 011°11'611.4
2017-Nov-15 19:00N 57°38' E 011°03'611.4
2017-Nov-15 18:30N 57°42' E 010°55'612.7
2017-Nov-15 18:00N 57°46' E 010°46'714.8
2017-Nov-15 17:30N 57°47' E 010°32'812.9
2017-Nov-15 16:51N 57°45' E 010°17'512.0
2017-Nov-15 16:25N 57°45' E 010°07'33211.5
2017-Nov-14 11:33N 53°12' E 004°33'211.9
2017-Nov-14 11:23N 53°10' E 004°32'411.8
2017-Nov-14 11:00N 53°07' E 004°28'1611.8
2017-Nov-14 09:40N 52°53' E 004°16'212.1
2017-Nov-14 09:31N 52°51' E 004°14'612.2
2017-Nov-14 09:00N 52°46' E 004°08'612.1
2017-Nov-14 08:30N 52°42' E 004°01'612.0
2017-Nov-14 07:59N 52°37' E 003°54'3010.2
2017-Nov-14 05:04N 52°11' E 003°31'2 9.6
2017-Nov-14 04:49N 52°09' E 003°32'411.5
2017-Nov-14 04:30N 52°07' E 003°37'611.5
2017-Nov-14 04:00N 52°01' E 003°42'5 9.6
2017-Nov-14 03:31N 51°57' E 003°46'2 3.3
2017-Nov-14 02:59N 51°56' E 003°47'0 0.0
2017-Nov-14 02:29N 51°56' E 003°47'0 0.0
2017-Nov-14 01:56N 51°56' E 003°47'0 0.0
2017-Nov-14 01:29N 51°56' E 003°47'0 0.0
2017-Nov-14 00:56N 51°56' E 003°47'0 0.0
2017-Nov-14 00:20N 51°56' E 003°47'0 0.0
2017-Nov-13 23:53N 51°56' E 003°47'0 0.0
2017-Nov-13 23:29N 51°56' E 003°47'0 0.0
2017-Nov-13 22:56N 51°56' E 003°47'0 0.0
2017-Nov-13 22:23N 51°56' E 003°47'0 0.1
2017-Nov-13 21:50N 51°56' E 003°47'0 0.0
2017-Nov-13 01:56N 51°56' E 003°47'0 0.0
2017-Nov-13 01:29N 51°56' E 003°47'0 0.0
2017-Nov-13 00:44N 51°56' E 003°47'0 0.1
2017-Nov-13 00:29N 51°56' E 003°47'0 0.0
2017-Nov-12 23:17N 51°56' E 003°47'0 0.0
2017-Nov-12 22:59N 51°56' E 003°47'0 0.0
2017-Nov-12 21:35N 51°56' E 003°47'0 0.0
2017-Nov-12 21:23N 51°56' E 003°47'0 0.0
2017-Nov-12 20:29N 51°56' E 003°47'0 0.0
2017-Nov-12 19:59N 51°56' E 003°47'0 0.0
2017-Nov-12 19:23N 51°56' E 003°47'0 0.0
2017-Nov-12 18:53N 51°56' E 003°47'0 0.0
2017-Nov-12 18:26N 51°56' E 003°47'0 0.1
2017-Nov-12 17:50N 51°56' E 003°47'0 0.0
2017-Nov-12 17:29N 51°56' E 003°47'0 0.1
2017-Nov-12 16:59N 51°56' E 003°47'0 0.1
2017-Nov-12 16:29N 51°56' E 003°47'0 0.0
2017-Nov-12 15:53N 51°56' E 003°47'0 0.0
2017-Nov-12 15:20N 51°56' E 003°47'0 0.1
2017-Nov-12 14:53N 51°56' E 003°47'0 0.0
2017-Nov-12 14:29N 51°56' E 003°47'0 0.0
2017-Nov-12 13:47N 51°56' E 003°47'0 0.1
2017-Nov-12 13:29N 51°56' E 003°47'0 0.0
2017-Nov-12 12:59N 51°56' E 003°47'0 0.0
2017-Nov-12 11:47N 51°56' E 003°47'0 0.0
2017-Nov-12 09:59N 51°56' E 003°47'3 6.5
2017-Nov-12 09:30N 51°58' E 003°50'4 8.8
2017-Nov-12 09:00N 52°02' E 003°54'611.7
2017-Nov-12 08:31N 51°59' E 004°03'510.5
2017-Nov-12 08:00N 51°57' E 004°10'2 4.6
2017-Nov-12 07:30N 51°55' E 004°13'0 0.0
2017-Nov-12 06:54N 51°55' E 004°13'0 0.0
2017-Nov-12 06:27N 51°55' E 004°13'0 0.0
2017-Nov-12 06:00N 51°55' E 004°13'0 0.0
2017-Nov-12 05:27N 51°55' E 004°13'0 0.0
2017-Nov-12 05:00N 51°55' E 004°13'0 0.0
2017-Nov-12 04:30N 51°55' E 004°13'0 0.0
2017-Nov-12 03:57N 51°55' E 004°13'0 0.0
2017-Nov-12 03:30N 51°55' E 004°13'0 0.0
2017-Nov-12 02:54N 51°55' E 004°13'0 0.0
2017-Nov-12 02:27N 51°55' E 004°13'0 0.0
2017-Nov-12 01:57N 51°55' E 004°13'0 0.0
2017-Nov-12 01:30N 51°55' E 004°13'0 0.0
2017-Nov-12 00:57N 51°55' E 004°13'0 0.0
2017-Nov-12 00:30N 51°55' E 004°13'0 0.0
2017-Nov-11 23:54N 51°55' E 004°13'0 0.0
2017-Nov-11 23:30N 51°55' E 004°13'0 0.0
2017-Nov-11 23:00N 51°55' E 004°13'0 0.0
2017-Nov-11 22:27N 51°55' E 004°13'0 0.0
2017-Nov-11 22:00N 51°55' E 004°13'0 0.0
2017-Nov-11 21:30N 51°55' E 004°13'0 0.0
2017-Nov-11 21:00N 51°55' E 004°13'0 0.0
2017-Nov-11 20:27N 51°55' E 004°13'0 0.0
2017-Nov-11 19:51N 51°55' E 004°13'0 0.0
2017-Nov-11 19:27N 51°55' E 004°13'0 0.0
2017-Nov-11 19:00N 51°55' E 004°13'0 0.0
2017-Nov-11 18:30N 51°55' E 004°13'0 0.0
2017-Nov-11 17:54N 51°55' E 004°13'0 0.0
2017-Nov-11 17:24N 51°55' E 004°13'0 0.0
2017-Nov-11 16:54N 51°55' E 004°13'0 0.0
2017-Nov-11 16:18N 51°55' E 004°13'0 0.0
2017-Nov-11 16:00N 51°55' E 004°13'0 0.0
2017-Nov-11 15:24N 51°55' E 004°13'0 0.0
2017-Nov-11 14:57N 51°55' E 004°13'0 0.0
2017-Nov-11 14:27N 51°55' E 004°13'0 0.0
2017-Nov-11 13:51N 51°55' E 004°13'0 0.0
2017-Nov-11 13:27N 51°55' E 004°13'0 0.0
2017-Nov-11 12:57N 51°55' E 004°13'0 0.0
2017-Nov-11 12:27N 51°55' E 004°13'0 0.0
2017-Nov-11 12:00N 51°55' E 004°13'0 0.0
2017-Nov-11 11:30N 51°55' E 004°13'0 0.0
2017-Nov-11 11:00N 51°55' E 004°13'0 0.0
2017-Nov-11 10:24N 51°55' E 004°13'0 0.0
2017-Nov-11 10:00N 51°55' E 004°13'0 0.0
2017-Nov-11 09:31N 51°55' E 004°13'2 4.9
2017-Nov-11 09:01N 51°57' E 004°10'5 9.7
2017-Nov-11 08:31N 51°59' E 004°03'510.0
2017-Nov-11 08:00N 51°60' E 003°55'2 4.1
2017-Nov-11 07:30N 52°00' E 003°52'2 4.7
2017-Nov-11 07:00N 51°60' E 003°48'6 1.5
2017-Nov-11 03:08N 51°55' E 003°42'0 0.0
2017-Nov-11 02:38N 51°55' E 003°42'0 0.1
2017-Nov-11 02:29N 51°55' E 003°42'0 0.0
2017-Nov-11 01:59N 51°55' E 003°42'0 0.0
2017-Nov-11 01:26N 51°55' E 003°42'0 0.0
2017-Nov-11 00:56N 51°55' E 003°42'0 0.0
2017-Nov-11 00:29N 51°55' E 003°42'0 0.0
2017-Nov-10 14:56N 51°55' E 003°42'0 0.0
2017-Nov-10 14:26N 51°55' E 003°42'0 0.0
2017-Nov-10 12:59N 51°55' E 003°42'0 0.1
2017-Nov-10 12:29N 51°55' E 003°42'0 0.8
2017-Nov-10 12:00N 51°55' E 003°42'5 9.1
2017-Nov-10 11:31N 51°57' E 003°35'611.0
2017-Nov-10 11:00N 51°55' E 003°26'611.5
2017-Nov-10 10:31N 51°53' E 003°17'3612.1
2017-Nov-10 07:31N 51°37' E 002°25'013.7
2017-Nov-10 07:29N 51°37' E 002°25'713.7
2017-Nov-10 06:59N 51°31' E 002°18'714.0
2017-Nov-10 06:30N 51°26' E 002°10'613.2
2017-Nov-10 06:00N 51°20' E 002°08'713.1
2017-Nov-10 05:29N 51°14' E 002°03'714.4
2017-Nov-10 05:00N 51°10' E 001°54'714.6
2017-Nov-10 04:30N 51°05' E 001°45'816.2
2017-Nov-10 04:00N 50°59' E 001°36'815.7
2017-Nov-10 03:29N 50°52' E 001°29'4313.9
2017-Nov-10 00:25N 50°27' E 000°35'715.5
2017-Nov-10 00:00N 50°25' E 000°25'815.5
2017-Nov-09 23:30N 50°23' E 000°14'815.2
2017-Nov-09 23:00N 50°21' E 000°02'714.8
2017-Nov-09 22:30N 50°19' W 000°09'5113.0
2017-Nov-09 18:34N 50°05' W 001°26'111.2
2017-Nov-09 18:31N 50°05' W 001°27'510.8
2017-Nov-09 18:01N 50°03' W 001°35'510.5
2017-Nov-09 17:31N 50°02' W 001°43'510.4
2017-Nov-09 17:01N 50°01' W 001°51'510.6
2017-Nov-09 16:30N 49°59' W 001°59'1411.7
2017-Nov-09 15:18N 49°55' W 002°20'413.0
2017-Nov-09 15:00N 49°54' W 002°26'713.4
2017-Nov-09 14:30N 49°53' W 002°36'713.8
2017-Nov-09 13:59N 49°51' W 002°47'1414.0
2017-Nov-09 13:01N 49°44' W 003°05'013.6
2017-Nov-09 13:00N 49°44' W 003°06'7114.4
2017-Nov-09 08:07N 49°09' W 004°39'215.0
2017-Nov-09 07:57N 49°07' W 004°43'915.1
2017-Nov-09 07:21N 49°03' W 004°54'513.6
2017-Nov-09 06:57N 49°00' W 005°02'613.4
2017-Nov-09 06:28N 48°57' W 005°10'813.3
2017-Nov-09 05:54N 48°53' W 005°20'1613.1
2017-Nov-09 04:40N 48°43' W 005°40'  
Track history (hours):
 
Tides and Currents Weather Stations Pressure Air Temp Water Temp Dewpoint Dewpoint Depression Visibility Wind Speed Wind Dir Waves Ship Positions

Leander

Last reported at 2017-Nov-18 21:19 UTC. Time now 2017-Nov-22 11:19 UTC.
Position N 56°27' E 007°12'.

Length 144 m; draft 7.7 m.

Type: Ship. MMSI: 218731000.

Date/timePositionNaut miles runAvg speedWind from/ knotsBaromVisibWave heightAir tempDewpointWater temp
2017-Nov-18 21:19N 56°27' E 007°12'3 8.8
2017-Nov-18 21:00N 56°29' E 007°15'4 8.6
2017-Nov-18 20:29N 56°33' E 007°19'4 8.8
2017-Nov-18 19:59N 56°36' E 007°24'4 8.8
2017-Nov-18 19:30N 56°40' E 007°28'5 9.2
2017-Nov-18 18:57N 56°44' E 007°32'112 8.8
2017-Nov-18 06:11N 57°48' E 010°23'2 8.9
2017-Nov-18 06:00N 57°48' E 010°26'4 8.8
2017-Nov-18 05:30N 57°49' E 010°34'4 8.5
2017-Nov-18 05:00N 57°48' E 010°42'7 9.4
2017-Nov-18 04:16N 57°44' E 010°52'311.2
2017-Nov-18 04:00N 57°42' E 010°56'611.3
2017-Nov-18 03:29N 57°39' E 011°05'611.9
2017-Nov-18 03:00N 57°35' E 011°13'612.0
2017-Nov-18 02:29N 57°31' E 011°22'511.4
2017-Nov-18 02:00N 57°26' E 011°27'611.9
2017-Nov-18 01:30N 57°20' E 011°31'612.0
2017-Nov-18 01:00N 57°15' E 011°35'612.0
2017-Nov-18 00:30N 57°09' E 011°38'6011.9
2017-Nov-17 19:27N 56°13' E 012°18'511.6
2017-Nov-17 19:00N 56°10' E 012°25'611.9
2017-Nov-17 18:30N 56°06' E 012°34'5 9.3
2017-Nov-17 18:00N 56°03' E 012°39'611.2
2017-Nov-17 17:31N 55°58' E 012°41'612.7
2017-Nov-17 17:00N 55°51' E 012°41'612.8
2017-Nov-17 16:30N 55°45' E 012°42'4 9.0
2017-Nov-17 16:00N 55°41' E 012°39'1 0.0
2017-Nov-16 11:43N 55°41' E 012°38'0 0.0
2017-Nov-16 11:25N 55°41' E 012°38'0 0.0
2017-Nov-16 10:58N 55°41' E 012°38'0 0.0
2017-Nov-16 10:28N 55°41' E 012°38'0 0.0
2017-Nov-16 09:58N 55°41' E 012°38'0 0.0
2017-Nov-16 09:28N 55°41' E 012°38'0 0.0
2017-Nov-16 08:58N 55°41' E 012°38'0 0.0
2017-Nov-16 08:28N 55°41' E 012°38'0 0.0
2017-Nov-16 08:00N 55°41' E 012°38'1 1.6
2017-Nov-16 07:30N 55°42' E 012°38'4 7.2
2017-Nov-16 07:00N 55°45' E 012°41'4 8.0
2017-Nov-16 06:30N 55°49' E 012°42'611.3
2017-Nov-16 06:00N 55°54' E 012°39'611.3
2017-Nov-16 05:30N 55°60' E 012°38'5 9.4
2017-Nov-16 05:00N 56°04' E 012°36'5 9.3
2017-Nov-16 04:31N 56°07' E 012°29'5 9.6
2017-Nov-16 04:01N 56°10' E 012°22'5 9.4
2017-Nov-16 03:30N 56°13' E 012°15'4410.9
2017-Nov-15 23:28N 56°54' E 011°46'611.9
2017-Nov-15 22:58N 56°59' E 011°43'611.7
2017-Nov-15 22:29N 57°05' E 011°39'611.6
2017-Nov-15 22:00N 57°10' E 011°36'611.5
2017-Nov-15 21:30N 57°15' E 011°32'611.5
2017-Nov-15 21:00N 57°21' E 011°29'511.0
2017-Nov-15 20:30N 57°26' E 011°26'611.0
2017-Nov-15 19:59N 57°30' E 011°19'611.5
2017-Nov-15 19:30N 57°34' E 011°11'611.4
2017-Nov-15 19:00N 57°38' E 011°03'611.4
2017-Nov-15 18:30N 57°42' E 010°55'612.7
2017-Nov-15 18:00N 57°46' E 010°46'714.8
2017-Nov-15 17:30N 57°47' E 010°32'812.9
2017-Nov-15 16:51N 57°45' E 010°17'512.0
2017-Nov-15 16:25N 57°45' E 010°07'33211.5
2017-Nov-14 11:33N 53°12' E 004°33'211.9
2017-Nov-14 11:23N 53°10' E 004°32'411.8
2017-Nov-14 11:00N 53°07' E 004°28'1611.8
2017-Nov-14 09:40N 52°53' E 004°16'212.1
2017-Nov-14 09:31N 52°51' E 004°14'612.2
2017-Nov-14 09:00N 52°46' E 004°08'612.1
2017-Nov-14 08:30N 52°42' E 004°01'612.0
2017-Nov-14 07:59N 52°37' E 003°54'3010.2
2017-Nov-14 05:04N 52°11' E 003°31'2 9.6
2017-Nov-14 04:49N 52°09' E 003°32'411.5
2017-Nov-14 04:30N 52°07' E 003°37'611.5
2017-Nov-14 04:00N 52°01' E 003°42'5 9.6
2017-Nov-14 03:31N 51°57' E 003°46'2 3.3
2017-Nov-14 02:59N 51°56' E 003°47'0 0.0
2017-Nov-14 02:29N 51°56' E 003°47'0 0.0
2017-Nov-14 01:56N 51°56' E 003°47'0 0.0
2017-Nov-14 01:29N 51°56' E 003°47'0 0.0
2017-Nov-14 00:56N 51°56' E 003°47'0 0.0
2017-Nov-14 00:20N 51°56' E 003°47'0 0.0
2017-Nov-13 23:53N 51°56' E 003°47'0 0.0
2017-Nov-13 23:29N 51°56' E 003°47'0 0.0
2017-Nov-13 22:56N 51°56' E 003°47'0 0.0
2017-Nov-13 22:23N 51°56' E 003°47'0 0.1
2017-Nov-13 21:50N 51°56' E 003°47'0 0.0
2017-Nov-13 01:56N 51°56' E 003°47'0 0.0
2017-Nov-13 01:29N 51°56' E 003°47'0 0.0
2017-Nov-13 00:44N 51°56' E 003°47'0 0.1
2017-Nov-13 00:29N 51°56' E 003°47'0 0.0
2017-Nov-12 23:17N 51°56' E 003°47'0 0.0
2017-Nov-12 22:59N 51°56' E 003°47'0 0.0
2017-Nov-12 21:35N 51°56' E 003°47'0 0.0
2017-Nov-12 21:23N 51°56' E 003°47'0 0.0
2017-Nov-12 20:29N 51°56' E 003°47'0 0.0
2017-Nov-12 19:59N 51°56' E 003°47'0 0.0
2017-Nov-12 19:23N 51°56' E 003°47'0 0.0
2017-Nov-12 18:53N 51°56' E 003°47'0 0.0
2017-Nov-12 18:26N 51°56' E 003°47'0 0.1
2017-Nov-12 17:50N 51°56' E 003°47'0 0.0
2017-Nov-12 17:29N 51°56' E 003°47'0 0.1
2017-Nov-12 16:59N 51°56' E 003°47'0 0.1
2017-Nov-12 16:29N 51°56' E 003°47'0 0.0
2017-Nov-12 15:53N 51°56' E 003°47'0 0.0
2017-Nov-12 15:20N 51°56' E 003°47'0 0.1
2017-Nov-12 14:53N 51°56' E 003°47'0 0.0
2017-Nov-12 14:29N 51°56' E 003°47'0 0.0
2017-Nov-12 13:47N 51°56' E 003°47'0 0.1
2017-Nov-12 13:29N 51°56' E 003°47'0 0.0
2017-Nov-12 12:59N 51°56' E 003°47'0 0.0
2017-Nov-12 11:47N 51°56' E 003°47'0 0.0
2017-Nov-12 09:59N 51°56' E 003°47'3 6.5
2017-Nov-12 09:30N 51°58' E 003°50'4 8.8
2017-Nov-12 09:00N 52°02' E 003°54'611.7
2017-Nov-12 08:31N 51°59' E 004°03'510.5
2017-Nov-12 08:00N 51°57' E 004°10'2 4.6
2017-Nov-12 07:30N 51°55' E 004°13'0 0.0
2017-Nov-12 06:54N 51°55' E 004°13'0 0.0
2017-Nov-12 06:27N 51°55' E 004°13'0 0.0
2017-Nov-12 06:00N 51°55' E 004°13'0 0.0
2017-Nov-12 05:27N 51°55' E 004°13'0 0.0
2017-Nov-12 05:00N 51°55' E 004°13'0 0.0
2017-Nov-12 04:30N 51°55' E 004°13'0 0.0
2017-Nov-12 03:57N 51°55' E 004°13'0 0.0
2017-Nov-12 03:30N 51°55' E 004°13'0 0.0
2017-Nov-12 02:54N 51°55' E 004°13'0 0.0
2017-Nov-12 02:27N 51°55' E 004°13'0 0.0
2017-Nov-12 01:57N 51°55' E 004°13'0 0.0
2017-Nov-12 01:30N 51°55' E 004°13'0 0.0
2017-Nov-12 00:57N 51°55' E 004°13'0 0.0
2017-Nov-12 00:30N 51°55' E 004°13'0 0.0
2017-Nov-11 23:54N 51°55' E 004°13'0 0.0
2017-Nov-11 23:30N 51°55' E 004°13'0 0.0
2017-Nov-11 23:00N 51°55' E 004°13'0 0.0
2017-Nov-11 22:27N 51°55' E 004°13'0 0.0
2017-Nov-11 22:00N 51°55' E 004°13'0 0.0
2017-Nov-11 21:30N 51°55' E 004°13'0 0.0
2017-Nov-11 21:00N 51°55' E 004°13'0 0.0
2017-Nov-11 20:27N 51°55' E 004°13'0 0.0
2017-Nov-11 19:51N 51°55' E 004°13'0 0.0
2017-Nov-11 19:27N 51°55' E 004°13'0 0.0
2017-Nov-11 19:00N 51°55' E 004°13'0 0.0
2017-Nov-11 18:30N 51°55' E 004°13'0 0.0
2017-Nov-11 17:54N 51°55' E 004°13'0 0.0
2017-Nov-11 17:24N 51°55' E 004°13'0 0.0
2017-Nov-11 16:54N 51°55' E 004°13'0 0.0
2017-Nov-11 16:18N 51°55' E 004°13'0 0.0
2017-Nov-11 16:00N 51°55' E 004°13'0 0.0
2017-Nov-11 15:24N 51°55' E 004°13'0 0.0
2017-Nov-11 14:57N 51°55' E 004°13'0 0.0
2017-Nov-11 14:27N 51°55' E 004°13'0 0.0
2017-Nov-11 13:51N 51°55' E 004°13'0 0.0
2017-Nov-11 13:27N 51°55' E 004°13'0 0.0
2017-Nov-11 12:57N 51°55' E 004°13'0 0.0
2017-Nov-11 12:27N 51°55' E 004°13'0 0.0
2017-Nov-11 12:00N 51°55' E 004°13'0 0.0
2017-Nov-11 11:30N 51°55' E 004°13'0 0.0
2017-Nov-11 11:00N 51°55' E 004°13'0 0.0
2017-Nov-11 10:24N 51°55' E 004°13'0 0.0
2017-Nov-11 10:00N 51°55' E 004°13'0 0.0
2017-Nov-11 09:31N 51°55' E 004°13'2 4.9
2017-Nov-11 09:01N 51°57' E 004°10'5 9.7
2017-Nov-11 08:31N 51°59' E 004°03'510.0
2017-Nov-11 08:00N 51°60' E 003°55'2 4.1
2017-Nov-11 07:30N 52°00' E 003°52'2 4.7
2017-Nov-11 07:00N 51°60' E 003°48'6 1.5
2017-Nov-11 03:08N 51°55' E 003°42'0 0.0
2017-Nov-11 02:38N 51°55' E 003°42'0 0.1
2017-Nov-11 02:29N 51°55' E 003°42'0 0.0
2017-Nov-11 01:59N 51°55' E 003°42'0 0.0
2017-Nov-11 01:26N 51°55' E 003°42'0 0.0
2017-Nov-11 00:56N 51°55' E 003°42'0 0.0
2017-Nov-11 00:29N 51°55' E 003°42'0 0.0
2017-Nov-10 14:56N 51°55' E 003°42'0 0.0
2017-Nov-10 14:26N 51°55' E 003°42'0 0.0
2017-Nov-10 12:59N 51°55' E 003°42'0 0.1
2017-Nov-10 12:29N 51°55' E 003°42'0 0.8
2017-Nov-10 12:00N 51°55' E 003°42'5 9.1
2017-Nov-10 11:31N 51°57' E 003°35'611.0
2017-Nov-10 11:00N 51°55' E 003°26'611.5
2017-Nov-10 10:31N 51°53' E 003°17'3612.1
2017-Nov-10 07:31N 51°37' E 002°25'013.7
2017-Nov-10 07:29N 51°37' E 002°25'713.7
2017-Nov-10 06:59N 51°31' E 002°18'714.0
2017-Nov-10 06:30N 51°26' E 002°10'613.2
2017-Nov-10 06:00N 51°20' E 002°08'713.1
2017-Nov-10 05:29N 51°14' E 002°03'714.4
2017-Nov-10 05:00N 51°10' E 001°54'714.6
2017-Nov-10 04:30N 51°05' E 001°45'816.2
2017-Nov-10 04:00N 50°59' E 001°36'815.7
2017-Nov-10 03:29N 50°52' E 001°29'4313.9
2017-Nov-10 00:25N 50°27' E 000°35'715.5
2017-Nov-10 00:00N 50°25' E 000°25'815.5
2017-Nov-09 23:30N 50°23' E 000°14'815.2
2017-Nov-09 23:00N 50°21' E 000°02'714.8
2017-Nov-09 22:30N 50°19' W 000°09'5113.0
2017-Nov-09 18:34N 50°05' W 001°26'111.2
2017-Nov-09 18:31N 50°05' W 001°27'510.8
2017-Nov-09 18:01N 50°03' W 001°35'510.5
2017-Nov-09 17:31N 50°02' W 001°43'510.4
2017-Nov-09 17:01N 50°01' W 001°51'510.6
2017-Nov-09 16:30N 49°59' W 001°59'1411.7
2017-Nov-09 15:18N 49°55' W 002°20'413.0
2017-Nov-09 15:00N 49°54' W 002°26'713.4
2017-Nov-09 14:30N 49°53' W 002°36'713.8
2017-Nov-09 13:59N 49°51' W 002°47'1414.0
2017-Nov-09 13:01N 49°44' W 003°05'013.6
2017-Nov-09 13:00N 49°44' W 003°06'7114.4
2017-Nov-09 08:07N 49°09' W 004°39'215.0
2017-Nov-09 07:57N 49°07' W 004°43'915.1
2017-Nov-09 07:21N 49°03' W 004°54'513.6
2017-Nov-09 06:57N 49°00' W 005°02'613.4
2017-Nov-09 06:28N 48°57' W 005°10'813.3
2017-Nov-09 05:54N 48°53' W 005°20'1613.1
2017-Nov-09 04:40N 48°43' W 005°40'  

Dump ship's entire track history